Time;durP1;ratioP1;P1;durP2;ratioP2;P2;SDS_P1;SDS_P2;PMS_P1;PMS_P2;Temp;Humidity;BMP_temperature;BMP_pressure;BME280_temperature;BME280_humidity;BME280_pressure;Samples;Min_cycle;Max_cycle;Signal;HPM_P1;HPM_P2
2021/01/11 00:00:54;;;;;;;40.30;17.13;;;-1.30;99.90;;;;;;5040256;28;20026;-45
2021/01/11 00:03:20;;;;;;;26.95;12.35;;;-1.20;99.90;;;;;;5024871;28;20159;-45
2021/01/11 00:05:46;;;;;;;50.58;19.23;;;-1.20;99.90;;;;;;5017215;28;20488;-46
2021/01/11 00:08:11;;;;;;;36.95;16.55;;;-1.20;99.90;;;;;;5022795;28;20145;-45
2021/01/11 00:10:37;;;;;;;47.20;17.83;;;-1.10;99.90;;;;;;5018402;28;20022;-42
2021/01/11 00:13:02;;;;;;;46.65;17.90;;;-1.10;99.90;;;;;;5020251;28;20030;-49
2021/01/11 00:15:28;;;;;;;30.77;14.50;;;-1.10;99.90;;;;;;5023074;28;20576;-47
2021/01/11 00:17:54;;;;;;;41.03;15.27;;;-1.00;99.90;;;;;;5023561;28;20030;-45
2021/01/11 00:20:19;;;;;;;42.05;18.20;;;-1.00;99.90;;;;;;5022790;28;20097;-47
2021/01/11 00:22:45;;;;;;;38.90;18.83;;;-0.90;99.90;;;;;;5026819;28;20025;-46
2021/01/11 00:25:12;;;;;;;49.80;20.08;;;-0.90;99.90;;;;;;5025584;28;20061;-45
2021/01/11 00:27:37;;;;;;;40.35;16.80;;;-0.90;99.90;;;;;;5027152;28;20034;-46
2021/01/11 00:30:06;;;;;;;38.72;16.52;;;-0.80;99.90;;;;;;5030875;28;20246;-46
2021/01/11 00:32:35;;;;;;;38.67;17.75;;;-0.80;99.90;;;;;;5029407;28;20129;-45
2021/01/11 00:35:02;;;;;;;52.45;21.50;;;-0.70;99.90;;;;;;5042031;28;20033;-45
2021/01/11 00:37:27;;;;;;;48.17;20.17;;;-0.70;99.90;;;;;;5028748;28;20014;-45
2021/01/11 00:39:53;;;;;;;61.97;21.60;;;-0.70;99.90;;;;;;5026137;28;20511;-44
2021/01/11 00:42:19;;;;;;;54.72;19.77;;;-0.70;99.90;;;;;;5026578;28;20114;-46
2021/01/11 00:44:44;;;;;;;40.83;17.00;;;-0.70;99.90;;;;;;5035760;28;20029;-47
2021/01/11 00:47:10;;;;;;;65.78;25.60;;;-0.70;99.90;;;;;;5038244;28;20025;-48
2021/01/11 00:49:36;;;;;;;45.60;18.45;;;-0.70;99.90;;;;;;5029806;28;20108;-45
2021/01/11 00:52:04;;;;;;;44.92;19.65;;;-0.60;99.90;;;;;;5027424;28;20045;-44
2021/01/11 00:54:30;;;;;;;35.20;14.80;;;-0.60;99.90;;;;;;5037250;28;20033;-45
2021/01/11 00:56:55;;;;;;;33.75;14.43;;;-0.50;99.90;;;;;;5024340;28;20031;-45
2021/01/11 00:59:21;;;;;;;36.25;14.90;;;-0.50;99.90;;;;;;5023967;28;20538;-43
2021/01/11 01:01:50;;;;;;;38.65;19.05;;;-0.40;99.90;;;;;;5030217;28;20045;-47
2021/01/11 01:04:17;;;;;;;31.50;14.93;;;-0.40;99.90;;;;;;5035543;28;20433;-45
2021/01/11 01:06:42;;;;;;;31.92;14.25;;;-0.30;99.90;;;;;;5030669;28;20025;-45
2021/01/11 01:09:08;;;;;;;28.02;12.82;;;-0.40;99.90;;;;;;5019320;28;20037;-46
2021/01/11 01:11:37;;;;;;;28.20;11.82;;;-0.30;99.90;;;;;;5026663;28;20025;-45
2021/01/11 01:14:02;;;;;;;28.77;13.25;;;-0.30;99.90;;;;;;5026597;28;20022;-44
2021/01/11 01:16:28;;;;;;;31.40;12.52;;;-0.30;99.90;;;;;;5033524;28;20200;-45
2021/01/11 01:18:54;;;;;;;35.40;13.57;;;-0.20;99.90;;;;;;5027663;28;20029;-45
2021/01/11 01:21:20;;;;;;;27.10;11.77;;;-0.20;99.90;;;;;;5033340;28;20067;-45
2021/01/11 01:23:46;;;;;;;36.35;14.82;;;-0.20;99.90;;;;;;5029985;28;20057;-43
2021/01/11 01:26:12;;;;;;;31.20;14.77;;;-0.10;99.90;;;;;;5031974;28;20028;-42
2021/01/11 01:28:37;;;;;;;38.95;15.55;;;-0.10;99.90;;;;;;5026209;28;20385;-45
2021/01/11 01:31:03;;;;;;;28.77;13.63;;;-0.10;99.90;;;;;;5030746;28;20060;-43
2021/01/11 01:33:28;;;;;;;31.75;13.93;;;0.00;99.90;;;;;;5021283;28;20030;-46
2021/01/11 01:35:54;;;;;;;37.03;16.20;;;0.00;99.90;;;;;;5028485;28;20108;-45
2021/01/11 01:38:19;;;;;;;30.08;13.48;;;0.00;99.90;;;;;;5038654;28;20029;-45
2021/01/11 01:40:46;;;;;;;31.35;13.98;;;0.10;99.90;;;;;;5029149;28;20029;-47
2021/01/11 01:43:12;;;;;;;27.80;13.15;;;0.10;99.90;;;;;;5033033;28;20021;-43
2021/01/11 01:45:38;;;;;;;32.63;14.40;;;0.10;99.90;;;;;;5031156;28;20112;-43
2021/01/11 01:48:05;;;;;;;35.45;15.20;;;0.10;99.90;;;;;;5029597;28;20041;-48
2021/01/11 01:50:31;;;;;;;28.23;12.05;;;0.20;99.90;;;;;;5026807;28;20032;-47
2021/01/11 01:52:57;;;;;;;26.75;12.02;;;0.20;99.90;;;;;;5029891;28;20046;-43
2021/01/11 01:55:22;;;;;;;20.50;9.98;;;0.30;99.90;;;;;;5026906;28;20026;-45
2021/01/11 01:57:52;;;;;;;25.40;12.50;;;0.30;99.90;;;;;;5026483;28;20080;-48
2021/01/11 02:00:19;;;;;;;27.52;13.32;;;0.40;99.90;;;;;;5030354;28;20108;-42
2021/01/11 02:02:44;;;;;;;24.70;12.43;;;0.40;99.90;;;;;;5016758;28;20745;-45
2021/01/11 02:05:10;;;;;;;23.80;11.48;;;0.50;99.90;;;;;;5023843;28;20029;-44
2021/01/11 02:07:54;;;;;;;22.63;10.65;;;0.50;99.90;;;;;;5030384;28;20469;-45
2021/01/11 02:10:47;;;;;;;22.60;11.00;;;0.50;99.90;;;;;;5024473;28;20033;-42
2021/01/11 02:13:31;;;;;;;26.00;13.30;;;0.50;99.90;;;;;;5029380;28;20203;-42
2021/01/11 02:16:11;;;;;;;23.17;10.93;;;0.60;99.90;;;;;;5032467;28;20365;-45
2021/01/11 02:19:00;;;;;;;23.45;11.38;;;0.60;99.90;;;;;;5032343;28;20428;-46
2021/01/11 02:21:58;;;;;;;25.17;12.32;;;0.60;99.90;;;;;;5033869;28;20031;-44
2021/01/11 02:25:17;;;;;;;24.70;10.65;;;0.70;99.90;;;;;;5028090;28;20064;-45
2021/01/11 02:27:47;;;;;;;17.38;8.82;;;0.70;99.90;;;;;;5020940;28;20064;-45
2021/01/11 02:30:40;;;;;;;18.33;9.50;;;0.70;99.90;;;;;;5025757;28;20487;-45
2021/01/11 02:33:08;;;;;;;25.42;11.43;;;0.70;99.90;;;;;;5032798;28;20037;-43
2021/01/11 02:35:58;;;;;;;25.15;12.85;;;0.80;99.90;;;;;;5028127;28;20021;-45
2021/01/11 02:38:24;;;;;;;25.23;11.05;;;0.80;99.90;;;;;;5022548;28;20033;-47
2021/01/11 02:40:50;;;;;;;26.15;12.50;;;0.80;99.90;;;;;;5018419;28;20052;-46
2021/01/11 02:43:16;;;;;;;26.77;14.15;;;0.80;99.90;;;;;;5024729;28;20129;-43
2021/01/11 02:45:42;;;;;;;27.90;14.30;;;0.80;99.90;;;;;;5027220;28;20022;-45
2021/01/11 02:48:10;;;;;;;25.35;14.10;;;0.80;99.90;;;;;;5025383;28;20502;-45
2021/01/11 02:51:11;;;;;;;23.45;11.75;;;0.80;99.90;;;;;;5028487;28;20037;-46
2021/01/11 02:54:09;;;;;;;22.98;11.38;;;0.80;99.90;;;;;;5025652;28;20060;-45
2021/01/11 02:56:48;;;;;;;26.10;12.95;;;0.80;99.90;;;;;;5031009;28;20037;-43
2021/01/11 02:59:25;;;;;;;21.23;11.00;;;0.80;99.90;;;;;;5028624;28;20518;-46
2021/01/11 03:02:00;;;;;;;23.15;10.48;;;0.80;99.90;;;;;;5024576;28;20021;-44
2021/01/11 03:04:26;;;;;;;22.23;10.93;;;0.90;99.90;;;;;;5027405;28;20025;-44
2021/01/11 03:06:53;;;;;;;19.52;10.30;;;0.90;99.90;;;;;;5026651;28;20113;-44
2021/01/11 03:09:19;;;;;;;20.95;9.80;;;0.90;99.90;;;;;;5024952;28;20048;-43
2021/01/11 03:11:44;;;;;;;17.02;9.20;;;0.90;99.90;;;;;;5027036;28;20045;-45
2021/01/11 03:14:10;;;;;;;20.38;9.55;;;0.90;99.90;;;;;;5030455;28;20029;-43
2021/01/11 03:16:36;;;;;;;19.50;9.63;;;1.00;99.90;;;;;;5029358;28;20017;-46
2021/01/11 03:19:01;;;;;;;18.13;9.50;;;0.90;99.90;;;;;;5028084;28;20029;-45
2021/01/11 03:21:27;;;;;;;19.25;8.88;;;0.90;99.90;;;;;;5023710;28;20033;-44
2021/01/11 03:23:52;;;;;;;18.23;9.50;;;0.90;99.90;;;;;;5023683;28;20032;-44
2021/01/11 03:26:23;;;;;;;20.65;10.90;;;0.90;99.90;;;;;;5028425;28;20047;-43
2021/01/11 03:28:48;;;;;;;19.42;9.35;;;0.90;99.90;;;;;;5024412;28;20037;-46
2021/01/11 03:31:14;;;;;;;19.75;10.23;;;0.90;99.90;;;;;;5025017;28;20563;-48
2021/01/11 03:33:39;;;;;;;21.80;9.80;;;0.90;99.90;;;;;;5029543;28;20493;-45
2021/01/11 03:36:05;;;;;;;20.70;9.73;;;0.90;99.90;;;;;;5023348;28;20064;-42
2021/01/11 03:38:30;;;;;;;19.45;9.18;;;0.90;99.90;;;;;;5019996;28;20033;-45
2021/01/11 03:41:00;;;;;;;22.17;11.20;;;0.90;99.90;;;;;;5025904;28;20026;-45
2021/01/11 03:43:26;;;;;;;20.38;9.70;;;0.90;99.90;;;;;;5026430;28;20026;-43
2021/01/11 03:45:51;;;;;;;21.75;10.65;;;0.90;99.90;;;;;;5028797;28;20036;-45
2021/01/11 03:48:17;;;;;;;16.83;8.70;;;0.90;99.90;;;;;;5031320;28;20087;-46
2021/01/11 03:50:43;;;;;;;18.60;8.60;;;0.90;99.90;;;;;;5027840;28;20063;-45
2021/01/11 03:53:08;;;;;;;20.08;10.25;;;0.90;99.90;;;;;;5028374;28;20445;-44
2021/01/11 03:55:34;;;;;;;19.75;10.07;;;0.90;99.90;;;;;;5028527;28;20029;-47
2021/01/11 03:57:59;;;;;;;18.02;9.90;;;0.80;99.90;;;;;;5028466;28;20029;-43
2021/01/11 04:00:25;;;;;;;19.25;10.07;;;0.90;99.90;;;;;;5024715;28;20757;-46
2021/01/11 04:02:50;;;;;;;17.65;9.50;;;0.90;99.90;;;;;;5028738;28;20029;-45
2021/01/11 04:05:16;;;;;;;22.95;10.20;;;0.90;99.90;;;;;;5024335;28;20124;-42
2021/01/11 04:07:41;;;;;;;19.45;9.77;;;0.90;99.90;;;;;;5026832;28;20060;-44
2021/01/11 04:10:08;;;;;;;17.48;8.75;;;0.90;99.90;;;;;;5022969;28;20056;-43
2021/01/11 04:12:33;;;;;;;15.68;8.65;;;0.90;99.90;;;;;;5029748;28;20170;-43
2021/01/11 04:14:58;;;;;;;15.88;8.05;;;0.90;99.90;;;;;;5027106;28;20116;-47
2021/01/11 04:17:24;;;;;;;18.20;9.10;;;0.90;99.90;;;;;;5029293;28;20032;-46
2021/01/11 04:19:49;;;;;;;21.15;9.93;;;0.90;99.90;;;;;;5045588;28;20030;-43
2021/01/11 04:22:15;;;;;;;19.23;9.35;;;0.90;99.90;;;;;;5023400;28;20037;-42
2021/01/11 04:24:42;;;;;;;18.35;9.52;;;0.90;99.90;;;;;;5027927;28;20095;-45
2021/01/11 04:27:07;;;;;;;17.88;10.43;;;0.90;99.90;;;;;;5029176;28;20038;-45
2021/01/11 04:29:33;;;;;;;18.88;9.68;;;0.90;99.90;;;;;;5028211;28;20045;-42
2021/01/11 04:31:58;;;;;;;19.10;9.63;;;0.90;99.90;;;;;;5029116;28;20083;-43
2021/01/11 04:34:24;;;;;;;19.02;10.57;;;0.80;99.90;;;;;;5025767;28;20045;-43
2021/01/11 04:36:49;;;;;;;22.83;10.85;;;0.80;99.90;;;;;;5028918;28;20397;-42
2021/01/11 04:39:15;;;;;;;19.20;9.55;;;0.80;99.90;;;;;;5021078;28;20025;-41
2021/01/11 04:41:43;;;;;;;18.35;10.23;;;0.90;99.90;;;;;;5029317;28;20477;-41
2021/01/11 04:44:11;;;;;;;22.05;9.38;;;0.80;99.90;;;;;;5023570;28;20030;-41
2021/01/11 04:46:37;;;;;;;18.65;8.85;;;0.80;99.90;;;;;;5024794;28;20045;-41
2021/01/11 04:49:02;;;;;;;21.33;9.35;;;0.80;99.90;;;;;;5029754;28;20427;-43
2021/01/11 04:51:31;;;;;;;21.00;10.75;;;0.80;99.90;;;;;;5023174;28;20068;-40
2021/01/11 04:53:59;;;;;;;21.13;10.95;;;0.80;99.90;;;;;;5026303;28;20052;-47
2021/01/11 04:56:26;;;;;;;19.80;10.80;;;0.80;99.90;;;;;;5028650;28;20037;-46
2021/01/11 04:58:54;;;;;;;22.33;10.05;;;0.80;99.90;;;;;;5026685;28;20025;-42
2021/01/11 05:01:25;;;;;;;25.73;12.60;;;0.80;99.90;;;;;;5026513;28;20018;-42
2021/01/11 05:03:51;;;;;;;23.60;11.88;;;0.80;99.90;;;;;;5022788;28;20052;-43
2021/01/11 05:06:18;;;;;;;26.58;13.02;;;0.70;99.90;;;;;;5027820;28;20405;-45
2021/01/11 05:08:44;;;;;;;19.73;9.80;;;0.80;99.90;;;;;;5027258;28;20140;-45
2021/01/11 05:11:10;;;;;;;20.40;10.88;;;0.80;99.90;;;;;;5030939;28;20116;-42
2021/01/11 05:13:36;;;;;;;19.92;10.15;;;0.80;99.90;;;;;;5033407;28;20616;-44
2021/01/11 05:16:12;;;;;;;21.58;10.35;;;0.80;99.90;;;;;;5033057;28;20030;-47
2021/01/11 05:18:38;;;;;;;18.45;10.35;;;0.80;99.90;;;;;;5029479;28;20053;-45
2021/01/11 05:21:03;;;;;;;20.40;9.63;;;0.80;99.90;;;;;;5027952;28;20428;-44
2021/01/11 05:23:35;;;;;;;16.08;9.20;;;0.80;99.90;;;;;;5034295;28;20029;-44
2021/01/11 05:26:12;;;;;;;18.58;9.10;;;0.80;99.90;;;;;;5046307;28;20033;-47
2021/01/11 05:28:37;;;;;;;18.40;9.73;;;0.90;99.90;;;;;;5028637;28;20097;-44
2021/01/11 05:31:03;;;;;;;22.45;10.27;;;0.90;99.90;;;;;;5026646;28;20112;-44
2021/01/11 05:33:28;;;;;;;18.70;9.73;;;0.80;99.90;;;;;;5027405;28;20129;-44
2021/01/11 05:36:13;;;;;;;18.45;8.98;;;0.90;99.90;;;;;;5023158;28;20026;-44
2021/01/11 05:38:47;;;;;;;20.60;11.48;;;0.90;99.90;;;;;;5026143;28;20104;-43
2021/01/11 05:41:20;;;;;;;20.35;9.90;;;0.90;99.90;;;;;;5029460;28;20342;-44
2021/01/11 05:43:47;;;;;;;17.30;9.93;;;0.80;99.90;;;;;;5026016;28;20540;-47
2021/01/11 05:46:26;;;;;;;19.13;9.15;;;0.90;99.90;;;;;;5030672;28;20033;-44
2021/01/11 05:49:03;;;;;;;18.10;9.63;;;0.90;99.90;;;;;;5029530;28;20041;-47
2021/01/11 05:51:30;;;;;;;22.98;11.40;;;0.80;99.90;;;;;;5031249;28;20041;-43
2021/01/11 05:53:56;;;;;;;18.45;10.10;;;0.80;99.90;;;;;;5026929;28;20037;-45
2021/01/11 05:56:22;;;;;;;15.13;8.88;;;0.80;99.90;;;;;;5025840;28;20032;-45
2021/01/11 05:59:08;;;;;;;20.75;9.73;;;0.80;99.90;;;;;;5032104;28;20040;-46
2021/01/11 06:01:34;;;;;;;19.00;9.70;;;0.80;99.90;;;;;;5023173;28;20115;-44
2021/01/11 06:04:00;;;;;;;15.35;8.30;;;0.80;99.90;;;;;;5029205;28;20546;-47
2021/01/11 06:06:26;;;;;;;21.00;8.70;;;0.80;99.90;;;;;;5044189;28;20122;-46
2021/01/11 06:08:53;;;;;;;17.73;9.98;;;0.80;99.90;;;;;;5022550;28;20444;-45
2021/01/11 06:11:24;;;;;;;19.60;10.68;;;0.80;99.90;;;;;;5031607;28;20270;-48
2021/01/11 06:13:51;;;;;;;20.35;10.52;;;0.80;99.90;;;;;;5032063;28;20083;-42
2021/01/11 06:16:18;;;;;;;18.60;10.35;;;0.80;99.90;;;;;;5023234;28;20408;-43
2021/01/11 06:18:46;;;;;;;18.80;11.07;;;0.80;99.90;;;;;;5028357;28;20083;-44
2021/01/11 06:21:12;;;;;;;20.13;10.73;;;0.80;99.90;;;;;;5028660;28;20045;-47
2021/01/11 06:23:40;;;;;;;17.33;9.65;;;0.80;99.90;;;;;;5018945;28;20381;-43
2021/01/11 06:26:24;;;;;;;15.68;8.73;;;0.80;99.90;;;;;;5024332;28;20039;-45
2021/01/11 06:28:50;;;;;;;20.20;10.63;;;0.80;99.90;;;;;;5032059;28;20079;-42
2021/01/11 06:31:15;;;;;;;16.42;9.68;;;0.80;99.90;;;;;;5029298;28;20041;-46
2021/01/11 06:33:41;;;;;;;14.50;8.50;;;0.80;99.90;;;;;;5023342;28;20397;-45
2021/01/11 06:36:23;;;;;;;17.45;9.10;;;0.80;99.90;;;;;;5030493;28;20432;-46
2021/01/11 06:38:51;;;;;;;17.70;8.98;;;0.80;99.90;;;;;;5027435;28;20734;-43
2021/01/11 06:41:18;;;;;;;18.10;8.73;;;0.80;99.90;;;;;;5027986;28;20033;-42
2021/01/11 06:43:52;;;;;;;18.83;9.35;;;0.90;99.90;;;;;;5030840;28;20033;-44
2021/01/11 06:46:29;;;;;;;18.23;9.65;;;0.90;99.90;;;;;;5027397;28;20105;-42
2021/01/11 06:48:57;;;;;;;11.25;7.00;;;0.90;99.90;;;;;;5028024;28;20499;-42
2021/01/11 06:51:30;;;;;;;13.13;7.28;;;0.80;99.90;;;;;;5024693;28;20092;-44
2021/01/11 06:54:08;;;;;;;17.13;9.75;;;0.90;99.90;;;;;;5030290;28;20391;-44
2021/01/11 06:56:36;;;;;;;18.35;9.50;;;0.90;99.90;;;;;;5028590;28;20035;-45
2021/01/11 06:59:23;;;;;;;21.42;10.48;;;0.90;99.90;;;;;;5025615;28;20017;-45
2021/01/11 07:01:48;;;;;;;16.00;8.95;;;0.80;99.90;;;;;;5027708;28;20037;-45
2021/01/11 07:04:35;;;;;;;18.23;9.95;;;0.80;99.90;;;;;;5030592;28;20534;-43
2021/01/11 07:07:02;;;;;;;18.15;9.48;;;0.80;99.90;;;;;;5025061;28;20048;-42
2021/01/11 07:09:29;;;;;;;16.33;9.02;;;0.80;99.90;;;;;;5019831;28;20147;-43
2021/01/11 07:12:02;;;;;;;17.33;8.88;;;0.80;99.90;;;;;;5030399;28;20057;-46
2021/01/11 07:14:54;;;;;;;16.90;8.35;;;0.80;99.90;;;;;;5029604;28;20044;-42
2021/01/11 07:17:34;;;;;;;18.52;9.57;;;0.80;99.90;;;;;;5017123;28;20029;-42
2021/01/11 07:19:59;;;;;;;14.20;8.18;;;0.80;99.90;;;;;;5027645;28;20044;-46
2021/01/11 07:22:25;;;;;;;15.05;9.02;;;0.80;99.90;;;;;;5029760;28;20014;-45
2021/01/11 07:24:50;;;;;;;16.73;8.63;;;0.80;99.90;;;;;;5029070;28;20041;-44
2021/01/11 07:27:18;;;;;;;19.70;9.32;;;0.90;99.90;;;;;;5028050;28;20121;-43
2021/01/11 07:29:44;;;;;;;23.30;13.18;;;0.90;99.90;;;;;;5038889;28;20386;-44
2021/01/11 07:32:09;;;;;;;18.80;9.75;;;0.90;99.90;;;;;;5020664;28;20028;-44
2021/01/11 07:34:35;;;;;;;17.90;9.52;;;0.90;99.90;;;;;;5027346;28;20112;-44
2021/01/11 07:37:00;;;;;;;17.02;8.30;;;0.90;99.90;;;;;;5028103;28;20029;-44
2021/01/11 07:39:36;;;;;;;15.98;8.82;;;1.00;99.90;;;;;;5024046;28;20392;-44
2021/01/11 07:42:05;;;;;;;16.05;8.77;;;1.00;99.90;;;;;;5023753;28;20071;-46
2021/01/11 07:44:36;;;;;;;16.67;9.18;;;1.00;99.90;;;;;;5025915;28;20082;-43
2021/01/11 07:47:02;;;;;;;15.27;8.50;;;1.00;99.90;;;;;;5026263;28;20096;-46
2021/01/11 07:49:31;;;;;;;14.60;8.05;;;1.10;99.90;;;;;;5026622;28;20032;-44
2021/01/11 07:52:09;;;;;;;21.83;12.20;;;1.10;99.90;;;;;;5028485;28;20079;-44
2021/01/11 07:54:35;;;;;;;21.45;9.85;;;1.10;99.90;;;;;;5020324;28;20492;-44
2021/01/11 07:57:01;;;;;;;15.32;8.13;;;1.10;99.90;;;;;;5028329;28;20030;-47
2021/01/11 07:59:27;;;;;;;13.80;7.95;;;1.10;99.90;;;;;;5026066;28;20033;-42
2021/01/11 08:01:52;;;;;;;16.23;7.95;;;1.10;99.90;;;;;;5022374;28;20495;-41
2021/01/11 08:04:19;;;;;;;13.88;7.75;;;1.10;99.90;;;;;;5022392;28;20022;-41
2021/01/11 08:06:51;;;;;;;14.60;8.45;;;1.10;99.90;;;;;;5025009;28;20108;-44
2021/01/11 08:09:19;;;;;;;12.07;7.78;;;1.10;99.90;;;;;;5023221;28;20093;-41
2021/01/11 08:11:45;;;;;;;17.80;9.70;;;1.10;99.90;;;;;;5029799;28;20393;-42
2021/01/11 08:14:11;;;;;;;18.30;9.60;;;1.20;99.90;;;;;;5029052;28;20025;-46
2021/01/11 08:16:38;;;;;;;14.65;8.50;;;1.20;99.90;;;;;;5028284;28;20025;-43
2021/01/11 08:19:05;;;;;;;20.13;11.45;;;1.20;99.90;;;;;;5043425;28;20062;-49
2021/01/11 08:21:32;;;;;;;16.17;7.68;;;1.30;99.90;;;;;;5022336;28;20535;-42
2021/01/11 08:24:03;;;;;;;16.58;9.10;;;1.30;99.90;;;;;;5028170;28;20396;-46
2021/01/11 08:26:30;;;;;;;17.40;8.52;;;1.30;99.90;;;;;;5026143;28;20064;-44
2021/01/11 08:28:57;;;;;;;14.32;8.45;;;1.30;99.90;;;;;;5027759;28;20416;-44
2021/01/11 08:31:23;;;;;;;16.50;9.13;;;1.30;99.90;;;;;;5025668;28;20037;-43
2021/01/11 08:33:49;;;;;;;11.50;6.60;;;1.40;99.90;;;;;;5026747;28;20041;-44
2021/01/11 08:36:20;;;;;;;12.38;7.38;;;1.40;99.90;;;;;;5028859;28;20385;-42
2021/01/11 08:39:24;;;;;;;12.82;7.18;;;1.40;99.90;;;;;;5024449;28;20021;-43
2021/01/11 08:41:54;;;;;;;11.00;6.57;;;1.50;99.90;;;;;;4987910;28;20121;-45
2021/01/11 08:44:31;;;;;;;15.05;8.20;;;1.50;99.90;;;;;;4991074;28;20077;-43
2021/01/11 08:47:06;;;;;;;13.65;7.70;;;1.50;99.90;;;;;;5012492;28;20083;-46
2021/01/11 08:49:32;;;;;;;13.55;7.78;;;1.50;99.90;;;;;;5029906;28;20029;-42
2021/01/11 08:52:11;;;;;;;12.07;7.40;;;1.60;99.90;;;;;;5032676;28;20048;-42
2021/01/11 08:54:37;;;;;;;13.98;7.70;;;1.60;99.90;;;;;;5026982;28;20084;-44
2021/01/11 08:57:11;;;;;;;13.43;7.05;;;1.60;99.90;;;;;;5027554;28;20499;-44
2021/01/11 08:59:45;;;;;;;13.88;7.25;;;1.70;99.90;;;;;;5032232;28;20028;-44
2021/01/11 09:02:24;;;;;;;13.73;7.15;;;1.60;99.90;;;;;;5032249;28;20021;-42
2021/01/11 09:04:49;;;;;;;14.48;9.13;;;1.70;99.90;;;;;;5032010;28;20474;-42
2021/01/11 09:07:28;;;;;;;16.95;8.75;;;1.70;99.90;;;;;;5028757;28;20104;-42
2021/01/11 09:09:54;;;;;;;16.08;7.97;;;1.70;99.90;;;;;;5030738;28;20029;-42
2021/01/11 09:12:34;;;;;;;10.90;6.38;;;1.70;99.90;;;;;;5029810;28;20022;-41
2021/01/11 09:14:59;;;;;;;11.57;6.60;;;1.80;99.90;;;;;;5036427;28;20034;-41
2021/01/11 09:17:34;;;;;;;13.90;7.15;;;1.80;99.90;;;;;;5029367;28;20025;-41
2021/01/11 09:20:03;;;;;;;14.55;6.10;;;1.80;99.90;;;;;;5027920;28;20037;-42
2021/01/11 09:22:39;;;;;;;12.95;6.68;;;1.80;99.90;;;;;;5027174;28;20382;-42
2021/01/11 09:25:08;;;;;;;12.50;6.90;;;1.80;99.90;;;;;;5024852;28;20032;-44
2021/01/11 09:27:34;;;;;;;18.33;7.85;;;1.80;99.90;;;;;;5029507;28;20092;-41
2021/01/11 09:30:00;;;;;;;12.88;7.15;;;1.80;99.90;;;;;;5043473;28;20040;-42
2021/01/11 09:32:25;;;;;;;12.38;6.30;;;1.80;99.90;;;;;;5026094;28;20547;-43
2021/01/11 09:34:51;;;;;;;14.57;8.05;;;1.90;99.90;;;;;;5030391;28;20038;-43
2021/01/11 09:37:17;;;;;;;12.40;6.53;;;1.90;99.90;;;;;;5024223;28;20064;-42
2021/01/11 09:39:42;;;;;;;10.95;5.65;;;1.90;99.90;;;;;;5029791;28;20029;-42
2021/01/11 09:42:08;;;;;;;14.48;6.57;;;2.00;99.90;;;;;;5029278;28;20069;-42
2021/01/11 09:44:34;;;;;;;14.80;7.30;;;2.00;99.90;;;;;;5030920;28;20029;-43
2021/01/11 09:47:00;;;;;;;13.85;7.22;;;2.00;99.90;;;;;;5032295;28;20053;-42
2021/01/11 09:49:26;;;;;;;13.02;6.82;;;2.00;99.90;;;;;;5028854;28;20025;-41
2021/01/11 09:51:51;;;;;;;13.15;7.57;;;2.10;99.90;;;;;;5031625;28;20053;-44
2021/01/11 09:54:18;;;;;;;13.40;7.20;;;2.10;99.90;;;;;;5023274;28;20526;-41
2021/01/11 09:56:44;;;;;;;12.85;6.82;;;2.10;99.90;;;;;;5027157;28;20100;-42
2021/01/11 09:59:10;;;;;;;12.35;6.82;;;2.10;99.90;;;;;;5032512;28;20109;-42
2021/01/11 10:01:46;;;;;;;13.38;6.25;;;2.20;99.90;;;;;;5029317;28;20029;-42
2021/01/11 10:04:13;;;;;;;16.80;8.43;;;2.20;99.90;;;;;;5031622;28;20473;-44
2021/01/11 10:06:42;;;;;;;15.60;7.50;;;2.20;99.90;;;;;;5029835;28;20116;-42
2021/01/11 10:09:11;;;;;;;16.73;8.10;;;2.20;99.90;;;;;;5031335;28;20025;-42
2021/01/11 10:11:37;;;;;;;11.65;6.65;;;2.30;99.90;;;;;;5047382;28;20029;-45
2021/01/11 10:14:04;;;;;;;13.07;7.35;;;2.30;99.90;;;;;;5034531;28;20397;-44
2021/01/11 10:16:29;;;;;;;16.05;7.82;;;2.20;99.90;;;;;;5032373;28;20032;-42
2021/01/11 10:18:55;;;;;;;10.18;6.07;;;2.30;99.90;;;;;;5049731;28;20497;-42
2021/01/11 10:21:20;;;;;;;11.65;6.32;;;2.30;99.90;;;;;;5024699;28;20021;-44
2021/01/11 10:23:46;;;;;;;12.45;6.53;;;2.30;99.90;;;;;;5024941;28;20028;-44
2021/01/11 10:26:16;;;;;;;12.23;6.53;;;2.30;99.90;;;;;;5021364;28;20116;-42
2021/01/11 10:28:41;;;;;;;11.27;6.85;;;2.30;99.90;;;;;;5022745;28;20724;-45
2021/01/11 10:31:07;;;;;;;13.80;7.15;;;2.30;99.90;;;;;;5028437;28;20032;-43
2021/01/11 10:33:32;;;;;;;12.85;6.05;;;2.30;99.90;;;;;;5028826;28;20084;-42
2021/01/11 10:35:58;;;;;;;11.10;6.43;;;2.30;99.90;;;;;;5030166;28;20052;-44
2021/01/11 10:38:23;;;;;;;10.30;6.03;;;2.30;99.90;;;;;;5026195;28;20055;-44
2021/01/11 10:40:49;;;;;;;9.98;5.57;;;2.30;99.90;;;;;;5025837;28;20068;-41
2021/01/11 10:43:14;;;;;;;11.35;6.22;;;2.30;99.90;;;;;;5030251;28;20029;-42
2021/01/11 10:45:40;;;;;;;12.10;7.20;;;2.30;99.90;;;;;;5025606;28;20037;-44
2021/01/11 10:48:06;;;;;;;9.32;5.07;;;2.30;99.90;;;;;;5029722;28;20037;-46
2021/01/11 10:50:32;;;;;;;9.90;5.32;;;2.30;99.90;;;;;;5027740;28;20051;-44
2021/01/11 10:52:57;;;;;;;10.55;5.25;;;2.40;99.90;;;;;;5025117;28;20037;-44
2021/01/11 10:55:23;;;;;;;9.52;5.10;;;2.40;99.90;;;;;;5028371;28;20431;-44
2021/01/11 10:57:49;;;;;;;8.60;4.47;;;2.40;99.90;;;;;;5025339;28;20415;-45
2021/01/11 11:00:18;;;;;;;10.05;6.03;;;2.40;99.90;;;;;;5024864;28;20483;-43
2021/01/11 11:02:44;;;;;;;9.27;5.03;;;2.40;99.90;;;;;;5026094;28;20033;-41
2021/01/11 11:05:10;;;;;;;9.88;6.13;;;2.40;99.90;;;;;;5026415;28;20025;-42
2021/01/11 11:07:38;;;;;;;8.48;4.53;;;2.40;99.90;;;;;;5024929;28;20233;-42
2021/01/11 11:10:08;;;;;;;8.23;4.43;;;2.40;99.90;;;;;;5029665;28;20462;-42
2021/01/11 11:12:34;;;;;;;6.82;4.65;;;2.40;99.90;;;;;;5027003;28;20029;-44
2021/01/11 11:15:00;;;;;;;10.32;5.30;;;2.40;99.90;;;;;;5029309;28;20087;-41
2021/01/11 11:17:32;;;;;;;8.95;5.20;;;2.40;99.90;;;;;;5029840;28;20419;-44
2021/01/11 11:19:59;;;;;;;9.60;5.05;;;2.40;99.90;;;;;;5030051;28;20381;-44
2021/01/11 11:22:24;;;;;;;9.20;4.40;;;2.40;99.90;;;;;;5032287;28;20076;-44
2021/01/11 11:24:51;;;;;;;9.63;4.18;;;2.40;99.90;;;;;;5030138;28;20573;-43
2021/01/11 11:27:16;;;;;;;7.72;4.40;;;2.40;99.90;;;;;;5032291;28;20091;-43
2021/01/11 11:29:42;;;;;;;8.52;4.70;;;2.40;99.90;;;;;;5030460;28;20069;-45
2021/01/11 11:32:07;;;;;;;12.27;5.55;;;2.40;99.90;;;;;;5033174;28;20033;-41
2021/01/11 11:34:33;;;;;;;7.25;4.28;;;2.40;99.90;;;;;;5029946;28;20029;-41
2021/01/11 11:36:58;;;;;;;8.10;4.85;;;2.40;99.90;;;;;;5035554;28;20029;-43
2021/01/11 11:39:24;;;;;;;8.90;4.68;;;2.50;99.90;;;;;;5023816;28;20068;-45
2021/01/11 11:41:58;;;;;;;7.75;4.45;;;2.50;99.90;;;;;;5028568;28;20388;-41
2021/01/11 11:44:25;;;;;;;7.97;4.68;;;2.60;99.90;;;;;;5027568;28;20033;-44
2021/01/11 11:46:51;;;;;;;8.50;4.70;;;2.60;99.90;;;;;;5040058;28;20033;-41
2021/01/11 11:49:16;;;;;;;7.35;4.57;;;2.60;99.90;;;;;;5026003;28;20056;-44
2021/01/11 11:51:46;;;;;;;9.70;4.38;;;2.70;99.90;;;;;;5029844;28;20087;-44
2021/01/11 11:54:12;;;;;;;15.85;5.85;;;2.80;99.90;;;;;;5026596;28;20079;-46
2021/01/11 11:56:40;;;;;;;9.88;5.07;;;2.80;99.90;;;;;;5035001;28;20025;-44
2021/01/11 11:59:06;;;;;;;14.05;6.90;;;2.90;99.90;;;;;;5029206;28;20025;-45
2021/01/11 12:01:36;;;;;;;13.95;6.10;;;2.80;99.90;;;;;;5042411;28;20021;-46
2021/01/11 12:04:02;;;;;;;10.63;5.65;;;2.90;99.90;;;;;;5026513;28;20484;-44
2021/01/11 12:06:36;;;;;;;10.32;5.13;;;2.90;99.90;;;;;;5023775;28;20044;-45
2021/01/11 12:09:02;;;;;;;7.38;4.55;;;2.90;99.90;;;;;;5021271;28;20036;-44
2021/01/11 12:11:27;;;;;;;9.57;4.75;;;2.80;99.90;;;;;;5026269;28;20455;-43
2021/01/11 12:13:53;;;;;;;8.05;4.57;;;2.90;99.90;;;;;;5022601;28;20025;-44
2021/01/11 12:16:18;;;;;;;11.43;5.30;;;2.90;99.90;;;;;;5022799;28;20025;-42
2021/01/11 12:18:44;;;;;;;8.43;5.25;;;3.00;99.90;;;;;;5025344;28;20101;-44
2021/01/11 12:21:09;;;;;;;8.60;4.97;;;3.00;99.90;;;;;;5024118;28;20034;-44
2021/01/11 12:23:35;;;;;;;9.77;5.75;;;2.90;99.90;;;;;;5023043;28;20022;-42
2021/01/11 12:26:00;;;;;;;8.30;4.90;;;2.90;99.90;;;;;;5029031;28;20033;-45
2021/01/11 12:28:26;;;;;;;8.23;4.70;;;3.00;99.90;;;;;;5019515;28;20477;-42
2021/01/11 12:30:51;;;;;;;7.45;4.75;;;2.90;99.90;;;;;;5023744;28;20037;-43
2021/01/11 12:33:16;;;;;;;9.70;5.47;;;2.90;99.90;;;;;;5026531;28;20057;-44
2021/01/11 12:35:42;;;;;;;8.98;4.80;;;2.90;99.90;;;;;;5028101;28;20033;-44
2021/01/11 12:38:07;;;;;;;6.35;4.68;;;2.80;99.90;;;;;;5019704;28;20053;-43
2021/01/11 12:40:33;;;;;;;9.57;4.30;;;2.70;99.90;;;;;;5028122;28;20353;-44
2021/01/11 12:42:58;;;;;;;9.32;5.03;;;2.70;99.90;;;;;;5030657;28;20036;-44
2021/01/11 12:45:24;;;;;;;6.70;4.45;;;2.60;99.90;;;;;;5026430;28;20045;-48
2021/01/11 12:47:50;;;;;;;10.70;5.15;;;2.60;99.90;;;;;;5024934;28;20037;-47
2021/01/11 12:50:15;;;;;;;10.43;4.63;;;2.50;99.90;;;;;;5027757;28;20026;-42